Time;durP1;ratioP1;P1;durP2;ratioP2;P2;SDS_P1;SDS_P2;PMS_P1;PMS_P2;Temp;Humidity;BMP_temperature;BMP_pressure;BME280_temperature;BME280_humidity;BME280_pressure;Samples;Min_cycle;Max_cycle;Signal;HPM_P1;HPM_P2
2021/01/07 00:01:14;;;;;;;159.40;83.10;;;-1.50;99.90;;;;;;5091468;28;20058;-65
2021/01/07 00:03:40;;;;;;;146.82;76.85;;;-1.40;99.90;;;;;;5084756;28;20480;-64
2021/01/07 00:06:10;;;;;;;157.65;80.97;;;-1.50;99.90;;;;;;5089212;28;20524;-64
2021/01/07 00:08:37;;;;;;;146.00;76.43;;;-1.30;99.90;;;;;;5084750;28;20095;-63
2021/01/07 00:11:04;;;;;;;136.75;72.57;;;-1.40;99.90;;;;;;5091141;28;20365;-65
2021/01/07 00:13:30;;;;;;;134.55;69.40;;;-1.40;99.90;;;;;;5088014;28;20012;-64
2021/01/07 00:15:55;;;;;;;125.05;66.78;;;-1.50;99.90;;;;;;5086299;28;20581;-64
2021/01/07 00:18:21;;;;;;;121.68;64.63;;;-1.50;99.90;;;;;;5084644;28;20020;-66
2021/01/07 00:20:47;;;;;;;111.75;58.47;;;-1.30;99.90;;;;;;5090900;28;20024;-64
2021/01/07 00:23:13;;;;;;;96.22;51.70;;;-1.30;99.90;;;;;;5084444;28;20069;-65
2021/01/07 00:25:45;;;;;;;94.50;49.55;;;-1.30;99.90;;;;;;5090718;28;20507;-65
2021/01/07 00:28:11;;;;;;;91.03;48.78;;;-1.60;99.90;;;;;;5084497;28;20030;-66
2021/01/07 00:30:36;;;;;;;101.60;54.45;;;-1.60;99.90;;;;;;5090752;28;20033;-64
2021/01/07 00:33:02;;;;;;;105.70;53.95;;;-1.50;99.90;;;;;;5084418;28;20491;-65
2021/01/07 00:35:28;;;;;;;98.18;53.10;;;-1.60;99.90;;;;;;5089248;28;20028;-64
2021/01/07 00:37:54;;;;;;;96.15;51.53;;;-1.60;99.90;;;;;;5084745;28;20082;-64
2021/01/07 00:40:20;;;;;;;88.90;48.33;;;-1.70;99.90;;;;;;5090405;28;20056;-64
2021/01/07 00:42:45;;;;;;;83.90;43.90;;;-1.70;99.90;;;;;;5086969;28;20029;-65
2021/01/07 00:45:11;;;;;;;82.20;44.88;;;-1.50;99.90;;;;;;5090395;28;20104;-64
2021/01/07 00:47:37;;;;;;;85.70;44.92;;;-1.50;99.90;;;;;;5085704;28;20504;-64
2021/01/07 00:50:03;;;;;;;77.13;41.25;;;-1.40;99.90;;;;;;5089058;28;20028;-64
2021/01/07 00:52:29;;;;;;;80.35;42.53;;;-1.50;99.90;;;;;;5087187;28;20032;-64
2021/01/07 00:54:54;;;;;;;69.90;38.33;;;-1.50;99.90;;;;;;5083890;28;20145;-64
2021/01/07 00:57:20;;;;;;;66.07;36.08;;;-1.30;99.90;;;;;;5088346;28;20076;-65
2021/01/07 00:59:45;;;;;;;62.80;35.92;;;-1.40;99.90;;;;;;5086490;28;20597;-65
2021/01/07 01:02:11;;;;;;;68.72;36.60;;;-1.40;99.90;;;;;;5091223;28;20024;-63
2021/01/07 01:04:37;;;;;;;64.32;36.25;;;-1.30;99.90;;;;;;5082023;28;20085;-64
2021/01/07 01:07:02;;;;;;;56.78;33.72;;;-1.50;99.90;;;;;;5088344;28;20115;-65
2021/01/07 01:09:28;;;;;;;52.08;30.67;;;-1.30;99.90;;;;;;5080393;28;20492;-64
2021/01/07 01:11:54;;;;;;;57.50;31.42;;;-1.40;99.90;;;;;;5089167;28;20490;-64
2021/01/07 01:14:21;;;;;;;54.50;30.85;;;-1.40;99.90;;;;;;5087725;28;20026;-65
2021/01/07 01:16:48;;;;;;;51.97;31.15;;;-1.40;99.90;;;;;;5089409;28;20048;-65
2021/01/07 01:19:16;;;;;;;55.17;30.10;;;-1.40;99.90;;;;;;5079675;28;20031;-64
2021/01/07 01:21:42;;;;;;;55.70;33.17;;;-1.50;99.90;;;;;;5090002;28;20388;-64
2021/01/07 01:24:08;;;;;;;55.63;32.65;;;-1.70;99.90;;;;;;5078768;28;20043;-64
2021/01/07 01:26:34;;;;;;;55.75;33.25;;;-1.80;99.90;;;;;;5089774;28;20039;-66
2021/01/07 01:28:59;;;;;;;62.85;33.70;;;-1.80;99.90;;;;;;5086119;28;20110;-64
2021/01/07 01:31:25;;;;;;;74.28;41.13;;;-1.90;99.90;;;;;;5080608;28;20084;-64
2021/01/07 01:33:50;;;;;;;68.38;36.10;;;-1.80;99.90;;;;;;5086290;28;20599;-65
2021/01/07 01:36:22;;;;;;;83.93;42.13;;;-1.80;99.90;;;;;;5087393;28;20024;-64
2021/01/07 01:38:47;;;;;;;106.03;49.05;;;-1.70;99.90;;;;;;5085346;28;20028;-64
2021/01/07 01:41:13;;;;;;;85.35;43.22;;;-2.00;99.90;;;;;;5085235;28;20036;-64
2021/01/07 01:43:39;;;;;;;72.95;38.53;;;-2.20;99.90;;;;;;5083011;28;20031;-64
2021/01/07 01:46:04;;;;;;;84.45;39.72;;;-2.20;99.90;;;;;;5089696;28;20075;-63
2021/01/07 01:48:30;;;;;;;64.22;36.33;;;-2.10;99.90;;;;;;5085116;28;20483;-64
2021/01/07 01:50:58;;;;;;;64.90;35.28;;;-2.00;99.90;;;;;;5086108;28;20028;-64
2021/01/07 01:53:24;;;;;;;63.88;34.83;;;-2.00;99.90;;;;;;5084091;28;20024;-66
2021/01/07 01:55:50;;;;;;;71.88;37.83;;;-1.80;99.90;;;;;;5085178;28;20516;-64
2021/01/07 01:58:16;;;;;;;89.97;42.80;;;-1.90;99.90;;;;;;5082912;28;20035;-64
2021/01/07 02:00:42;;;;;;;94.50;46.15;;;-1.90;99.90;;;;;;5089444;28;20043;-63
2021/01/07 02:03:11;;;;;;;94.13;46.75;;;-2.00;99.90;;;;;;5082883;28;20072;-65
2021/01/07 02:05:38;;;;;;;94.93;47.03;;;-2.20;99.90;;;;;;5089344;28;20085;-66
2021/01/07 02:08:06;;;;;;;88.18;44.58;;;-2.20;99.90;;;;;;5086972;28;20024;-64
2021/01/07 02:10:33;;;;;;;89.40;44.38;;;-2.10;99.90;;;;;;5090919;28;20384;-64
2021/01/07 02:12:59;;;;;;;82.82;42.28;;;-2.10;99.90;;;;;;5087579;28;20029;-63
2021/01/07 02:15:25;;;;;;;67.93;37.85;;;-2.00;99.90;;;;;;5088744;28;20027;-65
2021/01/07 02:17:51;;;;;;;70.45;37.00;;;-1.90;99.90;;;;;;5087066;28;20409;-64
2021/01/07 02:20:26;;;;;;;76.35;39.88;;;-2.00;99.90;;;;;;5093391;28;20059;-64
2021/01/07 02:22:53;;;;;;;71.65;37.78;;;-1.90;99.90;;;;;;5091241;28;20042;-64
2021/01/07 02:25:19;;;;;;;76.80;37.58;;;-2.10;99.90;;;;;;5085308;28;20115;-64
2021/01/07 02:27:45;;;;;;;69.72;37.00;;;-2.20;99.90;;;;;;5090862;28;20568;-64
2021/01/07 02:30:11;;;;;;;75.03;39.60;;;-2.10;99.90;;;;;;5084113;28;20030;-64
2021/01/07 02:32:37;;;;;;;75.22;40.45;;;-2.30;99.90;;;;;;5090221;28;20103;-64
2021/01/07 02:35:03;;;;;;;72.70;39.13;;;-2.50;99.90;;;;;;5091679;28;20112;-64
2021/01/07 02:37:29;;;;;;;70.72;38.25;;;-2.50;99.90;;;;;;5089636;28;20484;-64
2021/01/07 02:39:54;;;;;;;74.15;39.50;;;-2.50;99.90;;;;;;5088598;28;20027;-64
2021/01/07 02:42:20;;;;;;;76.40;39.28;;;-2.50;99.90;;;;;;5090770;28;20032;-63
2021/01/07 02:44:45;;;;;;;68.80;38.15;;;-2.40;99.90;;;;;;5088676;28;20043;-64
2021/01/07 02:47:11;;;;;;;70.22;37.83;;;-2.50;99.90;;;;;;5091070;28;20399;-64
2021/01/07 02:49:37;;;;;;;69.47;37.53;;;-2.60;99.90;;;;;;5085155;28;20024;-64
2021/01/07 02:52:02;;;;;;;70.22;38.05;;;-2.50;99.90;;;;;;5091119;28;20111;-64
2021/01/07 02:54:29;;;;;;;66.75;36.92;;;-2.50;99.90;;;;;;5085693;28;20060;-64
2021/01/07 02:56:55;;;;;;;70.97;37.58;;;-2.50;99.90;;;;;;5091815;28;20141;-65
2021/01/07 02:59:20;;;;;;;70.38;37.10;;;-2.50;99.90;;;;;;5087064;28;20554;-64
2021/01/07 03:01:46;;;;;;;71.15;36.65;;;-2.60;99.90;;;;;;5092570;28;20067;-65
2021/01/07 03:04:12;;;;;;;70.53;37.05;;;-2.60;99.90;;;;;;5085961;28;20538;-65
2021/01/07 03:06:37;;;;;;;69.38;36.72;;;-2.40;99.90;;;;;;5092720;28;20464;-65
2021/01/07 03:09:03;;;;;;;67.97;36.40;;;-2.70;99.90;;;;;;5085928;28;20035;-64
2021/01/07 03:11:29;;;;;;;67.45;35.25;;;-2.60;99.90;;;;;;5090759;28;20027;-64
2021/01/07 03:13:55;;;;;;;66.43;35.83;;;-2.60;99.90;;;;;;5082753;28;20028;-64
2021/01/07 03:16:20;;;;;;;72.05;36.15;;;-2.60;99.90;;;;;;5091069;28;20062;-64
2021/01/07 03:18:46;;;;;;;63.45;34.30;;;-2.40;99.90;;;;;;5089118;28;20106;-65
2021/01/07 03:21:11;;;;;;;63.28;34.45;;;-2.50;99.90;;;;;;5092163;28;20085;-65
2021/01/07 03:23:37;;;;;;;67.22;34.58;;;-2.60;99.90;;;;;;5085713;28;20456;-66
2021/01/07 03:26:03;;;;;;;62.85;33.50;;;-2.60;99.90;;;;;;5092005;28;20525;-64
2021/01/07 03:28:28;;;;;;;62.95;34.35;;;-2.70;99.90;;;;;;5085923;28;20472;-65
2021/01/07 03:30:54;;;;;;;69.90;36.50;;;-2.70;99.90;;;;;;5091772;28;20062;-64
2021/01/07 03:33:20;;;;;;;61.58;34.70;;;-2.60;99.90;;;;;;5086401;28;20101;-64
2021/01/07 03:35:46;;;;;;;63.80;32.97;;;-2.60;99.90;;;;;;5091912;28;20024;-64
2021/01/07 03:38:12;;;;;;;70.88;36.70;;;-2.60;99.90;;;;;;5085713;28;20419;-64
2021/01/07 03:40:38;;;;;;;66.32;35.05;;;-2.60;99.90;;;;;;5091563;28;20031;-65
2021/01/07 03:43:03;;;;;;;63.28;33.25;;;-2.60;99.90;;;;;;5088161;28;20517;-65
2021/01/07 03:45:29;;;;;;;56.90;32.05;;;-2.70;99.90;;;;;;5084971;28;20043;-65
2021/01/07 03:47:55;;;;;;;63.60;33.28;;;-2.80;99.90;;;;;;5089073;28;20026;-64
2021/01/07 03:50:21;;;;;;;67.70;34.83;;;-2.80;99.90;;;;;;5083384;28;20099;-66
2021/01/07 03:52:47;;;;;;;60.90;34.83;;;-2.70;99.90;;;;;;5088876;28;20035;-64
2021/01/07 03:55:12;;;;;;;59.20;32.38;;;-2.80;99.90;;;;;;5089903;28;20028;-64
2021/01/07 03:57:38;;;;;;;59.40;32.50;;;-2.80;99.90;;;;;;5087933;28;20028;-65
2021/01/07 04:00:05;;;;;;;52.75;31.00;;;-2.90;99.90;;;;;;5089015;28;20016;-65
2021/01/07 04:02:31;;;;;;;61.25;34.22;;;-2.90;99.90;;;;;;5087717;28;20500;-64
2021/01/07 04:04:56;;;;;;;64.63;35.05;;;-2.90;99.90;;;;;;5087302;28;20028;-64
2021/01/07 04:07:22;;;;;;;66.15;34.17;;;-2.90;99.90;;;;;;5085987;28;20043;-66
2021/01/07 04:09:48;;;;;;;63.92;34.83;;;-2.90;99.90;;;;;;5086180;28;20052;-66
2021/01/07 04:12:13;;;;;;;69.10;36.80;;;-2.90;99.90;;;;;;5087120;28;20023;-66
2021/01/07 04:14:39;;;;;;;63.15;35.45;;;-2.90;99.90;;;;;;5088574;28;20034;-63
2021/01/07 04:17:05;;;;;;;68.20;34.85;;;-2.90;99.90;;;;;;5089181;28;20051;-65
2021/01/07 04:19:30;;;;;;;56.85;32.92;;;-2.80;99.90;;;;;;5085657;28;20032;-65
2021/01/07 04:21:56;;;;;;;57.03;31.30;;;-2.80;99.90;;;;;;5087760;28;20086;-64
2021/01/07 04:24:21;;;;;;;54.00;31.10;;;-3.00;99.90;;;;;;5083499;28;20086;-65
2021/01/07 04:26:47;;;;;;;54.42;30.10;;;-3.20;99.90;;;;;;5090446;28;20028;-65
2021/01/07 04:29:13;;;;;;;55.67;31.55;;;-3.00;99.90;;;;;;5082641;28;20639;-64
2021/01/07 04:31:39;;;;;;;55.35;31.25;;;-3.00;99.90;;;;;;5069756;28;20101;-63
2021/01/07 04:34:05;;;;;;;60.90;32.33;;;-3.10;99.90;;;;;;5082366;28;20051;-63
2021/01/07 04:36:31;;;;;;;53.38;30.73;;;-3.00;99.90;;;;;;5090261;28;20055;-64
2021/01/07 04:38:57;;;;;;;55.38;30.33;;;-3.00;99.90;;;;;;5088810;28;20051;-63
2021/01/07 04:41:22;;;;;;;53.70;29.30;;;-3.10;99.90;;;;;;5090265;28;20020;-64
2021/01/07 04:43:55;;;;;;;50.90;28.77;;;-3.20;99.90;;;;;;5084304;28;20028;-64
2021/01/07 04:46:21;;;;;;;56.22;29.38;;;-3.10;99.90;;;;;;5078728;28;20039;-63
2021/01/07 04:48:48;;;;;;;49.55;29.67;;;-3.00;99.90;;;;;;5088214;28;20020;-63
2021/01/07 04:51:14;;;;;;;48.25;28.08;;;-3.00;99.90;;;;;;5087833;28;20078;-64
2021/01/07 04:53:39;;;;;;;48.13;28.20;;;-3.10;99.90;;;;;;5084408;28;20051;-65
2021/01/07 04:56:05;;;;;;;45.53;27.25;;;-3.10;99.90;;;;;;5072587;28;20039;-64
2021/01/07 04:58:31;;;;;;;48.72;27.23;;;-3.20;99.90;;;;;;5078166;28;20069;-65
2021/01/07 05:00:56;;;;;;;45.60;26.13;;;-3.10;99.90;;;;;;5079758;28;20016;-65
2021/01/07 05:03:23;;;;;;;46.10;27.23;;;-3.10;99.90;;;;;;5084189;28;20021;-64
2021/01/07 05:05:51;;;;;;;52.78;29.60;;;-3.30;99.90;;;;;;5086116;28;20036;-65
2021/01/07 05:08:20;;;;;;;44.38;25.50;;;-3.50;99.90;;;;;;5085074;28;20046;-64
2021/01/07 05:10:53;;;;;;;50.83;27.75;;;-3.40;99.90;;;;;;5089401;28;20028;-63
2021/01/07 05:13:20;;;;;;;48.17;26.20;;;-3.20;99.90;;;;;;5084380;28;20114;-65
2021/01/07 05:15:46;;;;;;;51.45;27.27;;;-3.20;99.90;;;;;;5084502;28;20032;-64
2021/01/07 05:18:12;;;;;;;46.05;25.92;;;-3.20;99.90;;;;;;5087373;28;20028;-63
2021/01/07 05:20:39;;;;;;;50.45;26.25;;;-3.20;99.90;;;;;;5089444;28;20035;-64
2021/01/07 05:23:06;;;;;;;48.33;25.83;;;-3.20;99.90;;;;;;5079552;28;20028;-64
2021/01/07 05:25:32;;;;;;;47.85;26.17;;;-3.20;99.90;;;;;;5087170;28;20027;-64
2021/01/07 05:28:02;;;;;;;42.28;25.95;;;-3.30;99.90;;;;;;5083516;28;20024;-63
2021/01/07 05:30:30;;;;;;;40.65;25.98;;;-3.40;99.90;;;;;;5089415;28;20241;-64
2021/01/07 05:33:02;;;;;;;47.80;26.23;;;-3.50;99.90;;;;;;5086814;28;20028;-65
2021/01/07 05:35:28;;;;;;;46.35;24.38;;;-3.60;99.90;;;;;;5086823;28;20020;-64
2021/01/07 05:37:54;;;;;;;42.58;24.98;;;-3.50;99.90;;;;;;5086330;28;20072;-64
2021/01/07 05:40:22;;;;;;;45.03;25.33;;;-3.40;99.90;;;;;;5086167;28;20091;-64
2021/01/07 05:42:48;;;;;;;41.83;24.05;;;-3.40;99.90;;;;;;5075072;28;20362;-65
2021/01/07 05:45:17;;;;;;;43.42;24.38;;;-3.50;99.90;;;;;;5087959;28;20034;-65
2021/01/07 05:47:50;;;;;;;43.60;24.35;;;-3.50;99.90;;;;;;5084852;28;20017;-65
2021/01/07 05:50:20;;;;;;;44.85;22.67;;;-3.40;99.90;;;;;;5088880;28;20024;-63
2021/01/07 05:52:48;;;;;;;43.38;24.83;;;-3.50;99.90;;;;;;5086745;28;20563;-65
2021/01/07 05:55:18;;;;;;;39.78;23.05;;;-3.40;99.90;;;;;;5080253;28;20025;-64
2021/01/07 05:57:44;;;;;;;45.90;25.88;;;-3.30;99.90;;;;;;5087175;28;20395;-66
2021/01/07 06:00:16;;;;;;;44.88;24.83;;;-3.50;99.90;;;;;;5088675;28;20027;-64
2021/01/07 06:02:44;;;;;;;40.92;24.50;;;-3.50;99.90;;;;;;5079223;28;20032;-63
2021/01/07 06:05:11;;;;;;;43.65;24.42;;;-3.40;99.90;;;;;;5088453;28;20433;-65
2021/01/07 06:07:38;;;;;;;39.40;23.55;;;-3.50;99.90;;;;;;5087694;28;20020;-64
2021/01/07 06:10:09;;;;;;;43.80;24.27;;;-3.50;99.90;;;;;;5087037;28;20032;-64
2021/01/07 06:12:35;;;;;;;42.78;24.75;;;-3.50;99.90;;;;;;5085535;28;20559;-64
2021/01/07 06:15:05;;;;;;;49.55;28.25;;;-3.60;99.90;;;;;;5083084;28;20089;-64
2021/01/07 06:17:31;;;;;;;48.50;27.17;;;-3.60;99.90;;;;;;5072259;28;20065;-63
2021/01/07 06:19:57;;;;;;;47.55;26.85;;;-3.50;99.90;;;;;;5079196;28;20021;-64
2021/01/07 06:22:24;;;;;;;47.35;26.55;;;-3.50;99.90;;;;;;5077447;28;20016;-64
2021/01/07 06:24:56;;;;;;;44.30;25.23;;;-3.60;99.90;;;;;;5083925;28;20024;-64
2021/01/07 06:27:27;;;;;;;51.50;26.33;;;-3.60;99.90;;;;;;5087955;28;20028;-65
2021/01/07 06:29:56;;;;;;;50.33;28.15;;;-3.60;99.90;;;;;;5080230;28;20020;-65
2021/01/07 06:32:22;;;;;;;51.17;28.20;;;-3.70;99.90;;;;;;5073671;28;20019;-65
2021/01/07 06:34:50;;;;;;;53.20;28.00;;;-1.90;99.90;;;;;;5078630;28;20035;-66
2021/01/07 06:37:38;;;;;;;56.03;27.73;;;-2.50;99.90;;;;;;5075331;28;20020;-66
2021/01/07 06:40:06;;;;;;;47.75;25.90;;;-2.90;99.90;;;;;;5082703;28;20026;-65
2021/01/07 06:42:35;;;;;;;44.88;24.60;;;-3.10;99.90;;;;;;5073665;28;20045;-66
2021/01/07 06:45:06;;;;;;;47.15;25.58;;;-3.20;99.90;;;;;;5087718;28;20043;-65
2021/01/07 06:47:32;;;;;;;39.17;24.55;;;-3.20;99.90;;;;;;5085966;28;20025;-62
2021/01/07 06:49:59;;;;;;;40.42;24.80;;;-3.40;99.90;;;;;;5086115;28;20113;-62
2021/01/07 06:52:26;;;;;;;44.75;25.75;;;-3.40;99.90;;;;;;5086582;28;20116;-62
2021/01/07 06:54:57;;;;;;;44.22;25.17;;;-3.50;99.90;;;;;;5083661;28;20020;-63
2021/01/07 06:57:23;;;;;;;47.95;26.15;;;-3.60;99.90;;;;;;5089794;28;20024;-63
2021/01/07 07:00:01;;;;;;;50.10;28.02;;;-3.60;99.90;;;;;;5085469;28;20043;-63
2021/01/07 07:02:27;;;;;;;43.78;24.73;;;-3.60;99.90;;;;;;5090255;28;20098;-63
2021/01/07 07:05:00;;;;;;;45.55;26.00;;;-3.60;99.90;;;;;;5065031;28;20040;-63
2021/01/07 07:07:37;;;;;;;48.08;26.10;;;-3.60;99.90;;;;;;5088055;28;20021;-63
2021/01/07 07:10:18;;;;;;;65.07;30.88;;;-3.60;99.90;;;;;;5088224;28;20024;-63
2021/01/07 07:12:49;;;;;;;75.07;35.17;;;-3.70;99.90;;;;;;5067476;28;20051;-63
2021/01/07 07:15:17;;;;;;;69.38;32.05;;;-3.90;99.90;;;;;;5087153;28;20034;-63
2021/01/07 07:17:46;;;;;;;70.13;31.13;;;-3.70;99.90;;;;;;5082850;28;20119;-63
2021/01/07 07:20:19;;;;;;;52.67;26.67;;;-3.80;99.90;;;;;;5085249;28;20422;-63
2021/01/07 07:22:46;;;;;;;66.70;27.50;;;-3.80;99.90;;;;;;5087146;28;20420;-66
2021/01/07 07:25:15;;;;;;;68.03;29.83;;;-3.60;99.90;;;;;;5072836;28;20324;-66
2021/01/07 07:28:04;;;;;;;50.20;25.00;;;-3.90;99.90;;;;;;5080700;28;20238;-63
2021/01/07 07:30:34;;;;;;;44.95;23.55;;;-3.90;99.90;;;;;;5094676;28;20044;-63
2021/01/07 07:33:01;;;;;;;48.28;23.77;;;-3.70;99.90;;;;;;5094751;28;20024;-62
2021/01/07 07:35:29;;;;;;;42.58;22.92;;;-3.60;99.90;;;;;;5091734;28;20028;-63
2021/01/07 07:37:56;;;;;;;42.17;22.52;;;-3.60;99.90;;;;;;5089779;28;20016;-62
2021/01/07 07:40:33;;;;;;;44.35;22.63;;;-3.60;99.90;;;;;;5082867;28;20380;-63
2021/01/07 07:43:00;;;;;;;40.67;23.30;;;-3.70;99.90;;;;;;5089424;28;20024;-63
2021/01/07 07:45:27;;;;;;;46.38;24.60;;;-3.70;99.90;;;;;;5090539;28;20032;-63
2021/01/07 07:47:53;;;;;;;45.95;23.98;;;-3.60;99.90;;;;;;5088751;28;20016;-65
2021/01/07 07:50:29;;;;;;;52.10;26.65;;;-3.60;99.90;;;;;;5089454;28;20476;-63
2021/01/07 07:53:07;;;;;;;52.90;29.38;;;-3.80;99.90;;;;;;5090671;28;20023;-62
2021/01/07 07:55:36;;;;;;;54.95;26.17;;;-3.80;99.90;;;;;;5085541;28;20492;-62
2021/01/07 07:58:08;;;;;;;43.70;24.95;;;-3.90;99.90;;;;;;5083493;28;20039;-62
2021/01/07 08:00:34;;;;;;;59.58;30.08;;;-3.80;99.90;;;;;;5090876;28;20443;-62
2021/01/07 08:03:00;;;;;;;79.38;39.20;;;-3.80;99.90;;;;;;5088558;28;20024;-63
2021/01/07 08:05:27;;;;;;;75.75;38.47;;;-3.60;99.90;;;;;;5083014;28;20342;-62
2021/01/07 08:07:53;;;;;;;64.45;32.38;;;-3.60;99.90;;;;;;5085549;28;20043;-63
2021/01/07 08:10:20;;;;;;;56.92;29.48;;;-3.60;99.90;;;;;;5090667;28;20119;-63
2021/01/07 08:12:46;;;;;;;60.75;32.10;;;-3.60;99.90;;;;;;5088511;28;20012;-63
2021/01/07 08:15:12;;;;;;;49.08;27.67;;;-3.60;99.90;;;;;;5089506;28;20107;-63
2021/01/07 08:17:38;;;;;;;52.97;27.70;;;-3.60;99.90;;;;;;5087473;28;20504;-63
2021/01/07 08:20:04;;;;;;;54.40;27.98;;;-3.50;99.90;;;;;;5084142;28;20050;-60
2021/01/07 08:22:30;;;;;;;54.70;28.83;;;-3.50;99.90;;;;;;5086588;28;20107;-60
2021/01/07 08:24:58;;;;;;;51.72;27.80;;;-3.40;99.90;;;;;;5087159;28;20580;-60
2021/01/07 08:27:36;;;;;;;51.13;27.17;;;-3.50;99.90;;;;;;5086922;28;20109;-60
2021/01/07 08:30:04;;;;;;;51.90;26.70;;;-3.40;99.90;;;;;;5086676;28;20523;-60
2021/01/07 08:32:39;;;;;;;47.13;26.15;;;-3.30;99.90;;;;;;5088356;28;20110;-61
2021/01/07 08:35:11;;;;;;;48.45;25.42;;;-3.50;99.90;;;;;;5088502;28;20480;-61
2021/01/07 08:37:42;;;;;;;45.83;24.50;;;-3.30;99.90;;;;;;5088981;28;20028;-61
2021/01/07 08:40:08;;;;;;;52.13;27.88;;;-3.10;99.90;;;;;;5088073;28;20395;-61
2021/01/07 08:42:38;;;;;;;44.67;25.33;;;-3.10;99.90;;;;;;5071403;28;20025;-61
2021/01/07 08:45:05;;;;;;;53.55;27.23;;;-3.00;99.90;;;;;;5087328;28;20051;-61
2021/01/07 08:47:31;;;;;;;50.08;26.23;;;-3.00;99.90;;;;;;5087497;28;20028;-61
2021/01/07 08:50:16;;;;;;;47.83;26.48;;;-2.80;99.90;;;;;;5086168;28;20085;-61
2021/01/07 08:52:56;;;;;;;45.33;25.67;;;-2.60;99.90;;;;;;5074757;28;20016;-60
2021/01/07 08:55:47;;;;;;;43.58;24.80;;;-2.60;99.90;;;;;;5085119;28;20024;-61
2021/01/07 08:58:29;;;;;;;47.97;25.85;;;-2.50;99.90;;;;;;5085099;28;20028;-61
2021/01/07 09:00:54;;;;;;;50.40;28.63;;;-2.50;99.90;;;;;;5088709;28;20095;-61
2021/01/07 09:03:20;;;;;;;58.63;31.38;;;-2.60;99.90;;;;;;5083508;28;20115;-61
2021/01/07 09:05:47;;;;;;;58.45;31.55;;;-2.80;99.90;;;;;;5089737;28;20488;-61
2021/01/07 09:08:14;;;;;;;54.15;31.02;;;-2.90;99.90;;;;;;5084149;28;20056;-61
2021/01/07 09:10:41;;;;;;;63.65;33.30;;;-2.80;99.90;;;;;;5089978;28;20024;-61
2021/01/07 09:13:24;;;;;;;66.80;33.17;;;-3.00;99.90;;;;;;5083743;28;20037;-61
2021/01/07 09:15:50;;;;;;;63.35;32.80;;;-3.00;99.90;;;;;;5084100;28;20107;-62
2021/01/07 09:18:19;;;;;;;55.78;29.65;;;-2.70;99.90;;;;;;5082698;28;20108;-61
2021/01/07 09:20:45;;;;;;;54.90;28.52;;;-2.40;99.90;;;;;;5087120;28;20020;-67
2021/01/07 09:23:15;;;;;;;47.85;25.75;;;-1.90;99.90;;;;;;5085865;28;20104;-64
2021/01/07 09:25:41;;;;;;;49.17;26.42;;;2.30;99.90;;;;;;5089526;28;20122;-65
2021/01/07 09:28:07;;;;;;;45.22;25.45;;;0.70;99.90;;;;;;5083528;28;20100;-60
2021/01/07 09:30:33;;;;;;;49.35;26.42;;;-0.60;99.90;;;;;;5089673;28;20613;-60
2021/01/07 09:32:59;;;;;;;44.90;26.00;;;-1.50;99.90;;;;;;5083590;28;20040;-60
2021/01/07 09:35:26;;;;;;;44.47;25.83;;;-1.50;99.90;;;;;;5087800;28;20496;-59
2021/01/07 09:37:52;;;;;;;42.40;24.98;;;-1.60;99.90;;;;;;5084283;28;20074;-62
2021/01/07 09:40:19;;;;;;;47.42;25.10;;;-1.50;99.90;;;;;;5086439;28;20027;-62
2021/01/07 09:42:44;;;;;;;46.97;26.20;;;-1.60;99.90;;;;;;5074980;28;20056;-62
2021/01/07 09:45:11;;;;;;;49.83;25.52;;;-1.40;99.90;;;;;;5079919;28;20098;-62
2021/01/07 09:47:38;;;;;;;45.03;26.38;;;-1.20;99.90;;;;;;5079797;28;20091;-62
2021/01/07 09:50:06;;;;;;;43.40;25.05;;;-1.50;99.90;;;;;;5086459;28;20391;-62
2021/01/07 09:52:32;;;;;;;46.40;24.25;;;-1.70;99.90;;;;;;5086959;28;20047;-62
2021/01/07 09:54:59;;;;;;;47.17;24.75;;;-1.50;99.90;;;;;;5081703;28;20023;-61
2021/01/07 09:57:25;;;;;;;41.00;24.35;;;-1.40;99.90;;;;;;5087852;28;20016;-62
2021/01/07 09:59:50;;;;;;;39.13;22.63;;;-1.40;99.90;;;;;;5080453;28;20035;-63
2021/01/07 10:02:16;;;;;;;38.80;22.33;;;0.10;99.90;;;;;;5087691;28;20028;-63
2021/01/07 10:04:43;;;;;;;40.05;22.77;;;-0.40;99.90;;;;;;5082841;28;20708;-63
2021/01/07 10:07:09;;;;;;;43.30;23.83;;;-0.90;99.90;;;;;;5087569;28;20020;-63
2021/01/07 10:09:35;;;;;;;44.72;22.08;;;-1.00;99.90;;;;;;5081001;28;20024;-63
2021/01/07 10:12:01;;;;;;;43.00;23.05;;;-0.60;99.90;;;;;;5075898;28;20024;-64
2021/01/07 10:14:29;;;;;;;41.28;23.08;;;-0.60;99.90;;;;;;5080118;28;20370;-62
2021/01/07 10:17:07;;;;;;;51.97;24.90;;;-0.60;99.90;;;;;;5073117;28;20061;-62
2021/01/07 10:19:34;;;;;;;47.75;23.92;;;-0.50;99.90;;;;;;5084222;28;20457;-63
2021/01/07 10:22:07;;;;;;;40.88;21.65;;;-0.30;99.90;;;;;;5088284;28;20055;-63
2021/01/07 10:24:41;;;;;;;42.08;21.73;;;-0.10;99.90;;;;;;5080442;28;20488;-63
2021/01/07 10:27:09;;;;;;;45.38;24.17;;;-0.30;99.90;;;;;;5069760;28;20396;-63
2021/01/07 10:29:35;;;;;;;35.45;21.67;;;-0.40;99.90;;;;;;5084348;28;20035;-63
2021/01/07 10:32:09;;;;;;;42.47;20.98;;;-0.10;99.90;;;;;;5090653;28;20392;-63
2021/01/07 10:34:38;;;;;;;40.00;21.77;;;0.00;99.90;;;;;;5088266;28;20028;-63
2021/01/07 10:37:06;;;;;;;38.38;20.70;;;-0.30;99.90;;;;;;5089994;28;20031;-64
2021/01/07 10:39:37;;;;;;;42.72;20.90;;;0.20;99.90;;;;;;5082466;28;20026;-65
2021/01/07 10:42:08;;;;;;;37.60;20.92;;;0.60;99.90;;;;;;5091180;28;20106;-65
2021/01/07 10:44:36;;;;;;;32.15;18.92;;;0.90;99.90;;;;;;5086423;28;20036;-64
2021/01/07 10:47:04;;;;;;;36.35;20.00;;;0.70;99.90;;;;;;5090464;28;20627;-62
2021/01/07 10:49:32;;;;;;;42.95;20.52;;;0.60;99.90;;;;;;5088305;28;20028;-64
2021/01/07 10:52:07;;;;;;;36.83;19.95;;;1.00;99.90;;;;;;5089572;28;20058;-63
2021/01/07 10:55:10;;;;;;;36.28;19.42;;;0.50;99.90;;;;;;5086648;28;20027;-63
2021/01/07 10:58:06;;;;;;;56.40;20.58;;;1.00;99.90;;;;;;5083510;28;20502;-63
2021/01/07 11:00:55;;;;;;;28.77;19.73;;;1.20;99.90;;;;;;5083257;28;20057;-63
2021/01/07 11:03:46;;;;;;;35.22;20.55;;;1.10;99.90;;;;;;5085813;28;20038;-64
2021/01/07 11:06:16;;;;;;;30.13;19.60;;;0.80;99.90;;;;;;5090599;28;20051;-64
2021/01/07 11:09:07;;;;;;;36.08;20.05;;;1.30;99.90;;;;;;5085896;28;20024;-64
2021/01/07 11:11:43;;;;;;;34.10;18.73;;;0.90;99.90;;;;;;5072135;28;20032;-64
2021/01/07 11:14:18;;;;;;;37.45;20.63;;;1.20;99.90;;;;;;5084324;28;20069;-63
2021/01/07 11:16:47;;;;;;;38.20;19.90;;;1.30;99.90;;;;;;5092276;28;20079;-64
2021/01/07 11:19:22;;;;;;;29.13;18.95;;;1.50;99.90;;;;;;5080804;28;20020;-64
2021/01/07 11:22:02;;;;;;;41.25;20.55;;;1.40;99.90;;;;;;5092150;28;20584;-64
2021/01/07 11:24:29;;;;;;;30.70;19.63;;;1.20;99.90;;;;;;5089647;28;20412;-64
2021/01/07 11:26:55;;;;;;;34.53;20.00;;;0.90;99.90;;;;;;5092218;28;20038;-64
2021/01/07 11:29:22;;;;;;;32.97;19.83;;;1.10;99.90;;;;;;5085731;28;20016;-64
2021/01/07 11:31:48;;;;;;;32.63;21.00;;;1.40;99.90;;;;;;5090725;28;20051;-64
2021/01/07 11:34:18;;;;;;;34.08;19.75;;;1.10;99.90;;;;;;5086108;28;20027;-64
2021/01/07 11:36:53;;;;;;;39.13;19.70;;;1.50;99.90;;;;;;5092167;28;20016;-64
2021/01/07 11:39:24;;;;;;;35.47;21.35;;;1.80;99.90;;;;;;5088363;28;20103;-64
2021/01/07 11:42:06;;;;;;;29.88;19.73;;;1.70;99.90;;;;;;5091783;28;20024;-64
2021/01/07 11:44:55;;;;;;;41.55;19.92;;;1.80;99.90;;;;;;5085897;28;20051;-64
2021/01/07 11:47:26;;;;;;;39.70;19.33;;;1.70;99.90;;;;;;5089562;28;20424;-65
2021/01/07 11:49:55;;;;;;;33.45;20.08;;;1.90;99.90;;;;;;5085557;28;20038;-65
2021/01/07 11:52:22;;;;;;;28.73;18.38;;;2.20;99.90;;;;;;5090383;28;20043;-65
2021/01/07 11:54:49;;;;;;;31.20;19.02;;;2.30;99.90;;;;;;5087303;28;20431;-65
2021/01/07 11:57:15;;;;;;;30.30;19.52;;;1.90;99.90;;;;;;5098107;28;20052;-65
2021/01/07 11:59:43;;;;;;;26.15;18.50;;;2.00;99.90;;;;;;5086716;28;20471;-65
2021/01/07 12:02:09;;;;;;;27.42;19.40;;;1.80;99.90;;;;;;5090564;28;20366;-65
2021/01/07 12:04:41;;;;;;;30.80;18.75;;;2.20;99.90;;;;;;5082509;28;20491;-64
2021/01/07 12:07:28;;;;;;;27.20;18.52;;;2.40;99.90;;;;;;5088177;28;20518;-64
2021/01/07 12:10:00;;;;;;;29.23;19.88;;;2.40;99.90;;;;;;5085382;28;20039;-66
2021/01/07 12:12:34;;;;;;;31.25;19.27;;;2.50;99.90;;;;;;5086226;28;20518;-65
2021/01/07 12:15:02;;;;;;;27.73;18.92;;;2.60;99.90;;;;;;5073887;28;20028;-65
2021/01/07 12:17:27;;;;;;;28.13;19.70;;;2.70;99.90;;;;;;5088546;28;20036;-65
2021/01/07 12:19:59;;;;;;;25.10;18.17;;;2.30;99.90;;;;;;5081003;28;20084;-65
2021/01/07 12:22:25;;;;;;;29.10;19.40;;;2.80;99.90;;;;;;5078814;28;20031;-66
2021/01/07 12:24:52;;;;;;;29.85;19.83;;;3.10;99.90;;;;;;5086345;28;20036;-65
2021/01/07 12:27:19;;;;;;;30.00;20.73;;;3.30;99.90;;;;;;5083268;28;21954;-65
2021/01/07 12:29:46;;;;;;;30.88;21.27;;;3.20;99.90;;;;;;5087240;28;20016;-65
2021/01/07 12:32:32;;;;;;;30.67;21.85;;;3.40;99.90;;;;;;5087466;28;20024;-65
2021/01/07 12:35:27;;;;;;;;;;;3.40;99.90;;;;;;5085386;28;20084;-65